sensor_id;sensor_type;location;lat;lon;timestamp;P1;durP1;ratioP1;P2;durP2;ratioP2
6947;SDS011;3513;47.664;9.162;2023-04-23T00:01:49;9.00;;;6.80;;
6947;SDS011;3513;47.664;9.162;2023-04-23T00:04:18;13.00;;;6.17;;
6947;SDS011;3513;47.664;9.162;2023-04-23T00:06:46;8.33;;;6.13;;
6947;SDS011;3513;47.664;9.162;2023-04-23T00:09:12;8.93;;;5.70;;
6947;SDS011;3513;47.664;9.162;2023-04-23T00:11:40;13.07;;;5.93;;
6947;SDS011;3513;47.664;9.162;2023-04-23T00:14:06;7.37;;;5.37;;
6947;SDS011;3513;47.664;9.162;2023-04-23T00:16:32;8.57;;;6.27;;
6947;SDS011;3513;47.664;9.162;2023-04-23T00:18:57;5.60;;;4.27;;
6947;SDS011;3513;47.664;9.162;2023-04-23T00:21:23;9.40;;;5.20;;
6947;SDS011;3513;47.664;9.162;2023-04-23T00:23:48;13.47;;;6.33;;
6947;SDS011;3513;47.664;9.162;2023-04-23T00:26:14;7.30;;;5.70;;
6947;SDS011;3513;47.664;9.162;2023-04-23T00:28:42;13.30;;;5.63;;
6947;SDS011;3513;47.664;9.162;2023-04-23T00:31:07;13.47;;;5.40;;
6947;SDS011;3513;47.664;9.162;2023-04-23T00:33:33;7.03;;;5.67;;
6947;SDS011;3513;47.664;9.162;2023-04-23T00:35:59;6.97;;;4.53;;
6947;SDS011;3513;47.664;9.162;2023-04-23T00:38:24;8.03;;;5.13;;
6947;SDS011;3513;47.664;9.162;2023-04-23T00:40:50;8.77;;;5.00;;
6947;SDS011;3513;47.664;9.162;2023-04-23T00:43:16;7.07;;;5.10;;
6947;SDS011;3513;47.664;9.162;2023-04-23T00:45:43;13.93;;;5.27;;
6947;SDS011;3513;47.664;9.162;2023-04-23T00:48:08;10.80;;;6.73;;
6947;SDS011;3513;47.664;9.162;2023-04-23T00:50:35;19.13;;;6.13;;
6947;SDS011;3513;47.664;9.162;2023-04-23T00:53:01;7.70;;;5.17;;
6947;SDS011;3513;47.664;9.162;2023-04-23T00:55:27;13.80;;;5.53;;
6947;SDS011;3513;47.664;9.162;2023-04-23T00:57:53;7.03;;;4.77;;
6947;SDS011;3513;47.664;9.162;2023-04-23T01:00:19;7.00;;;5.20;;
6947;SDS011;3513;47.664;9.162;2023-04-23T01:02:45;8.40;;;5.40;;
6947;SDS011;3513;47.664;9.162;2023-04-23T01:05:13;12.27;;;5.77;;
6947;SDS011;3513;47.664;9.162;2023-04-23T01:07:42;11.77;;;6.17;;
6947;SDS011;3513;47.664;9.162;2023-04-23T01:10:08;11.77;;;4.67;;
6947;SDS011;3513;47.664;9.162;2023-04-23T01:12:36;16.43;;;5.90;;
6947;SDS011;3513;47.664;9.162;2023-04-23T01:15:02;7.10;;;5.60;;
6947;SDS011;3513;47.664;9.162;2023-04-23T01:17:28;12.43;;;5.77;;
6947;SDS011;3513;47.664;9.162;2023-04-23T01:19:54;13.50;;;4.60;;
6947;SDS011;3513;47.664;9.162;2023-04-23T01:22:20;5.73;;;5.13;;
6947;SDS011;3513;47.664;9.162;2023-04-23T01:24:46;14.80;;;5.43;;
6947;SDS011;3513;47.664;9.162;2023-04-23T01:27:11;8.43;;;4.53;;
6947;SDS011;3513;47.664;9.162;2023-04-23T01:29:38;6.80;;;4.80;;
6947;SDS011;3513;47.664;9.162;2023-04-23T01:32:04;7.23;;;4.10;;
6947;SDS011;3513;47.664;9.162;2023-04-23T01:34:31;7.80;;;5.03;;
6947;SDS011;3513;47.664;9.162;2023-04-23T01:36:57;7.80;;;3.80;;
6947;SDS011;3513;47.664;9.162;2023-04-23T01:39:24;6.93;;;3.90;;
6947;SDS011;3513;47.664;9.162;2023-04-23T01:41:49;5.60;;;4.10;;
6947;SDS011;3513;47.664;9.162;2023-04-23T01:44:16;7.97;;;4.30;;
6947;SDS011;3513;47.664;9.162;2023-04-23T01:46:42;8.80;;;5.23;;
6947;SDS011;3513;47.664;9.162;2023-04-23T01:49:07;6.90;;;4.50;;
6947;SDS011;3513;47.664;9.162;2023-04-23T01:51:33;10.83;;;4.60;;
6947;SDS011;3513;47.664;9.162;2023-04-23T01:53:59;5.40;;;4.47;;
6947;SDS011;3513;47.664;9.162;2023-04-23T01:56:26;9.90;;;5.30;;
6947;SDS011;3513;47.664;9.162;2023-04-23T01:58:53;7.00;;;4.50;;
6947;SDS011;3513;47.664;9.162;2023-04-23T02:01:18;10.70;;;4.93;;
6947;SDS011;3513;47.664;9.162;2023-04-23T02:03:44;8.63;;;5.77;;
6947;SDS011;3513;47.664;9.162;2023-04-23T02:06:10;7.87;;;5.67;;
6947;SDS011;3513;47.664;9.162;2023-04-23T02:08:37;9.90;;;5.97;;
6947;SDS011;3513;47.664;9.162;2023-04-23T02:11:04;9.97;;;5.60;;
6947;SDS011;3513;47.664;9.162;2023-04-23T02:13:30;11.43;;;5.30;;
6947;SDS011;3513;47.664;9.162;2023-04-23T02:15:56;21.13;;;5.20;;
6947;SDS011;3513;47.664;9.162;2023-04-23T02:18:22;9.67;;;5.90;;
6947;SDS011;3513;47.664;9.162;2023-04-23T02:20:47;7.57;;;4.90;;
6947;SDS011;3513;47.664;9.162;2023-04-23T02:23:13;7.77;;;5.13;;
6947;SDS011;3513;47.664;9.162;2023-04-23T02:25:39;8.03;;;4.70;;
6947;SDS011;3513;47.664;9.162;2023-04-23T02:28:05;6.67;;;5.40;;
6947;SDS011;3513;47.664;9.162;2023-04-23T02:30:34;10.93;;;4.60;;
6947;SDS011;3513;47.664;9.162;2023-04-23T02:33:01;16.33;;;4.77;;
6947;SDS011;3513;47.664;9.162;2023-04-23T02:35:27;10.20;;;4.30;;
6947;SDS011;3513;47.664;9.162;2023-04-23T02:37:54;10.53;;;5.40;;
6947;SDS011;3513;47.664;9.162;2023-04-23T02:40:20;7.77;;;4.87;;
6947;SDS011;3513;47.664;9.162;2023-04-23T02:42:45;9.80;;;5.53;;
6947;SDS011;3513;47.664;9.162;2023-04-23T02:45:11;12.33;;;5.67;;
6947;SDS011;3513;47.664;9.162;2023-04-23T02:47:37;7.50;;;4.70;;
6947;SDS011;3513;47.664;9.162;2023-04-23T02:50:03;15.30;;;4.97;;
6947;SDS011;3513;47.664;9.162;2023-04-23T02:52:30;14.63;;;5.23;;
6947;SDS011;3513;47.664;9.162;2023-04-23T02:54:56;6.27;;;4.03;;
6947;SDS011;3513;47.664;9.162;2023-04-23T02:57:22;8.57;;;4.60;;
6947;SDS011;3513;47.664;9.162;2023-04-23T02:59:47;6.37;;;4.43;;
6947;SDS011;3513;47.664;9.162;2023-04-23T03:02:14;5.40;;;4.37;;
6947;SDS011;3513;47.664;9.162;2023-04-23T03:04:39;6.10;;;4.20;;
6947;SDS011;3513;47.664;9.162;2023-04-23T03:07:05;6.60;;;4.83;;
6947;SDS011;3513;47.664;9.162;2023-04-23T03:09:32;4.97;;;4.40;;
6947;SDS011;3513;47.664;9.162;2023-04-23T03:11:58;5.03;;;4.53;;
6947;SDS011;3513;47.664;9.162;2023-04-23T03:14:23;4.80;;;3.63;;
6947;SDS011;3513;47.664;9.162;2023-04-23T03:16:49;4.97;;;3.40;;
6947;SDS011;3513;47.664;9.162;2023-04-23T03:19:15;5.57;;;4.00;;
6947;SDS011;3513;47.664;9.162;2023-04-23T03:21:40;5.53;;;3.30;;
6947;SDS011;3513;47.664;9.162;2023-04-23T03:24:06;4.80;;;2.70;;
6947;SDS011;3513;47.664;9.162;2023-04-23T03:26:32;4.77;;;3.70;;
6947;SDS011;3513;47.664;9.162;2023-04-23T03:28:58;7.70;;;3.93;;
6947;SDS011;3513;47.664;9.162;2023-04-23T03:31:24;3.10;;;2.50;;
6947;SDS011;3513;47.664;9.162;2023-04-23T03:33:49;9.00;;;3.73;;
6947;SDS011;3513;47.664;9.162;2023-04-23T03:36:15;3.77;;;2.40;;
6947;SDS011;3513;47.664;9.162;2023-04-23T03:38:40;3.53;;;3.00;;
6947;SDS011;3513;47.664;9.162;2023-04-23T03:41:06;3.37;;;2.30;;
6947;SDS011;3513;47.664;9.162;2023-04-23T03:43:32;3.97;;;2.93;;
6947;SDS011;3513;47.664;9.162;2023-04-23T03:45:57;3.80;;;2.30;;
6947;SDS011;3513;47.664;9.162;2023-04-23T03:48:23;5.47;;;3.20;;
6947;SDS011;3513;47.664;9.162;2023-04-23T03:50:48;5.07;;;3.00;;
6947;SDS011;3513;47.664;9.162;2023-04-23T03:53:14;6.60;;;3.30;;
6947;SDS011;3513;47.664;9.162;2023-04-23T03:55:41;16.13;;;2.67;;
6947;SDS011;3513;47.664;9.162;2023-04-23T03:58:07;5.20;;;3.70;;
6947;SDS011;3513;47.664;9.162;2023-04-23T04:00:33;7.40;;;3.70;;
6947;SDS011;3513;47.664;9.162;2023-04-23T04:02:58;5.20;;;3.60;;
6947;SDS011;3513;47.664;9.162;2023-04-23T04:05:25;6.17;;;3.17;;
6947;SDS011;3513;47.664;9.162;2023-04-23T04:07:51;5.20;;;3.00;;
6947;SDS011;3513;47.664;9.162;2023-04-23T04:10:18;4.93;;;3.30;;
6947;SDS011;3513;47.664;9.162;2023-04-23T04:12:43;3.13;;;2.77;;
6947;SDS011;3513;47.664;9.162;2023-04-23T04:15:11;4.93;;;3.23;;
6947;SDS011;3513;47.664;9.162;2023-04-23T04:17:37;6.03;;;3.57;;
6947;SDS011;3513;47.664;9.162;2023-04-23T04:20:03;8.70;;;3.33;;
6947;SDS011;3513;47.664;9.162;2023-04-23T04:22:32;9.97;;;2.80;;
6947;SDS011;3513;47.664;9.162;2023-04-23T04:24:57;4.83;;;2.53;;
6947;SDS011;3513;47.664;9.162;2023-04-23T04:27:23;4.27;;;2.70;;
6947;SDS011;3513;47.664;9.162;2023-04-23T04:29:49;4.53;;;3.20;;
6947;SDS011;3513;47.664;9.162;2023-04-23T04:32:15;8.87;;;2.57;;
6947;SDS011;3513;47.664;9.162;2023-04-23T04:34:41;4.83;;;2.87;;
6947;SDS011;3513;47.664;9.162;2023-04-23T04:37:06;3.73;;;2.40;;
6947;SDS011;3513;47.664;9.162;2023-04-23T04:39:34;4.10;;;2.33;;
6947;SDS011;3513;47.664;9.162;2023-04-23T04:41:59;4.00;;;2.60;;
6947;SDS011;3513;47.664;9.162;2023-04-23T04:44:26;4.87;;;3.00;;
6947;SDS011;3513;47.664;9.162;2023-04-23T04:46:52;5.83;;;2.63;;
6947;SDS011;3513;47.664;9.162;2023-04-23T04:49:18;4.20;;;2.30;;
6947;SDS011;3513;47.664;9.162;2023-04-23T04:51:44;3.13;;;2.83;;
6947;SDS011;3513;47.664;9.162;2023-04-23T04:54:10;5.13;;;2.80;;
6947;SDS011;3513;47.664;9.162;2023-04-23T04:56:35;7.27;;;3.83;;
6947;SDS011;3513;47.664;9.162;2023-04-23T04:59:01;10.10;;;3.30;;
6947;SDS011;3513;47.664;9.162;2023-04-23T05:01:28;3.80;;;2.77;;
6947;SDS011;3513;47.664;9.162;2023-04-23T05:03:54;8.17;;;3.50;;
6947;SDS011;3513;47.664;9.162;2023-04-23T05:06:20;3.60;;;3.30;;
6947;SDS011;3513;47.664;9.162;2023-04-23T05:08:46;3.27;;;2.53;;
6947;SDS011;3513;47.664;9.162;2023-04-23T05:11:17;2.80;;;2.33;;
6947;SDS011;3513;47.664;9.162;2023-04-23T05:13:44;7.03;;;2.90;;
6947;SDS011;3513;47.664;9.162;2023-04-23T05:16:10;3.67;;;2.50;;
6947;SDS011;3513;47.664;9.162;2023-04-23T05:18:36;5.07;;;3.00;;
6947;SDS011;3513;47.664;9.162;2023-04-23T05:21:05;4.00;;;2.87;;
6947;SDS011;3513;47.664;9.162;2023-04-23T05:23:31;4.20;;;3.20;;
6947;SDS011;3513;47.664;9.162;2023-04-23T05:25:58;6.27;;;2.97;;
6947;SDS011;3513;47.664;9.162;2023-04-23T05:28:24;2.87;;;2.57;;
6947;SDS011;3513;47.664;9.162;2023-04-23T05:30:49;2.30;;;2.10;;
6947;SDS011;3513;47.664;9.162;2023-04-23T05:33:16;2.20;;;2.00;;
6947;SDS011;3513;47.664;9.162;2023-04-23T05:35:42;4.90;;;3.20;;
6947;SDS011;3513;47.664;9.162;2023-04-23T05:38:08;2.70;;;2.50;;
6947;SDS011;3513;47.664;9.162;2023-04-23T05:40:33;4.67;;;2.50;;
6947;SDS011;3513;47.664;9.162;2023-04-23T05:42:59;5.30;;;2.40;;
6947;SDS011;3513;47.664;9.162;2023-04-23T05:45:25;4.10;;;2.60;;
6947;SDS011;3513;47.664;9.162;2023-04-23T05:47:51;2.37;;;2.03;;
6947;SDS011;3513;47.664;9.162;2023-04-23T05:50:17;4.47;;;2.67;;
6947;SDS011;3513;47.664;9.162;2023-04-23T05:52:42;5.90;;;2.37;;
6947;SDS011;3513;47.664;9.162;2023-04-23T05:55:08;6.60;;;2.13;;
6947;SDS011;3513;47.664;9.162;2023-04-23T05:57:37;2.80;;;2.13;;
6947;SDS011;3513;47.664;9.162;2023-04-23T06:00:03;4.20;;;2.33;;
6947;SDS011;3513;47.664;9.162;2023-04-23T06:02:30;9.10;;;2.23;;
6947;SDS011;3513;47.664;9.162;2023-04-23T06:04:57;3.43;;;1.70;;
6947;SDS011;3513;47.664;9.162;2023-04-23T06:07:23;2.23;;;2.03;;
6947;SDS011;3513;47.664;9.162;2023-04-23T06:09:48;3.70;;;2.70;;
6947;SDS011;3513;47.664;9.162;2023-04-23T06:12:14;1.77;;;1.67;;
6947;SDS011;3513;47.664;9.162;2023-04-23T06:14:40;2.73;;;1.83;;
6947;SDS011;3513;47.664;9.162;2023-04-23T06:17:05;3.70;;;2.20;;
6947;SDS011;3513;47.664;9.162;2023-04-23T06:19:31;5.07;;;3.97;;
6947;SDS011;3513;47.664;9.162;2023-04-23T06:21:57;2.63;;;2.30;;
6947;SDS011;3513;47.664;9.162;2023-04-23T06:24:22;3.30;;;1.90;;
6947;SDS011;3513;47.664;9.162;2023-04-23T06:26:48;8.30;;;2.00;;
6947;SDS011;3513;47.664;9.162;2023-04-23T06:29:13;3.17;;;1.80;;
6947;SDS011;3513;47.664;9.162;2023-04-23T06:31:39;3.87;;;2.40;;
6947;SDS011;3513;47.664;9.162;2023-04-23T06:34:06;6.93;;;3.03;;
6947;SDS011;3513;47.664;9.162;2023-04-23T06:36:31;2.90;;;1.90;;
6947;SDS011;3513;47.664;9.162;2023-04-23T06:38:57;2.50;;;1.70;;
6947;SDS011;3513;47.664;9.162;2023-04-23T06:41:23;3.77;;;2.33;;
6947;SDS011;3513;47.664;9.162;2023-04-23T06:43:48;2.40;;;2.20;;
6947;SDS011;3513;47.664;9.162;2023-04-23T06:46:14;3.30;;;2.27;;
6947;SDS011;3513;47.664;9.162;2023-04-23T06:48:39;5.83;;;2.90;;
6947;SDS011;3513;47.664;9.162;2023-04-23T06:51:05;2.00;;;1.83;;
6947;SDS011;3513;47.664;9.162;2023-04-23T06:53:31;2.27;;;2.07;;
6947;SDS011;3513;47.664;9.162;2023-04-23T06:55:57;2.00;;;1.90;;
6947;SDS011;3513;47.664;9.162;2023-04-23T06:58:22;5.30;;;2.57;;
6947;SDS011;3513;47.664;9.162;2023-04-23T07:00:54;2.27;;;2.07;;
6947;SDS011;3513;47.664;9.162;2023-04-23T07:03:31;2.10;;;1.90;;
6947;SDS011;3513;47.664;9.162;2023-04-23T07:05:57;2.30;;;2.03;;
6947;SDS011;3513;47.664;9.162;2023-04-23T07:08:22;2.57;;;2.37;;
6947;SDS011;3513;47.664;9.162;2023-04-23T07:10:48;1.90;;;1.80;;
6947;SDS011;3513;47.664;9.162;2023-04-23T07:13:14;4.60;;;2.17;;
6947;SDS011;3513;47.664;9.162;2023-04-23T07:15:40;3.43;;;2.90;;
6947;SDS011;3513;47.664;9.162;2023-04-23T07:18:06;4.40;;;2.63;;
6947;SDS011;3513;47.664;9.162;2023-04-23T07:20:32;3.50;;;2.03;;
6947;SDS011;3513;47.664;9.162;2023-04-23T07:22:58;2.47;;;2.13;;
6947;SDS011;3513;47.664;9.162;2023-04-23T07:25:23;5.03;;;2.50;;
6947;SDS011;3513;47.664;9.162;2023-04-23T07:27:50;2.63;;;2.33;;
6947;SDS011;3513;47.664;9.162;2023-04-23T07:30:18;4.33;;;2.57;;
6947;SDS011;3513;47.664;9.162;2023-04-23T07:32:43;4.73;;;2.53;;
6947;SDS011;3513;47.664;9.162;2023-04-23T07:35:09;5.37;;;2.67;;
6947;SDS011;3513;47.664;9.162;2023-04-23T07:37:35;3.83;;;3.10;;
6947;SDS011;3513;47.664;9.162;2023-04-23T07:40:02;3.83;;;2.67;;
6947;SDS011;3513;47.664;9.162;2023-04-23T07:42:29;5.20;;;3.03;;
6947;SDS011;3513;47.664;9.162;2023-04-23T07:44:55;2.97;;;2.40;;
6947;SDS011;3513;47.664;9.162;2023-04-23T07:47:21;3.17;;;2.30;;
6947;SDS011;3513;47.664;9.162;2023-04-23T07:49:46;2.97;;;2.67;;
6947;SDS011;3513;47.664;9.162;2023-04-23T07:52:12;2.73;;;2.53;;
6947;SDS011;3513;47.664;9.162;2023-04-23T07:54:39;3.23;;;2.53;;
6947;SDS011;3513;47.664;9.162;2023-04-23T07:57:05;2.73;;;2.30;;
6947;SDS011;3513;47.664;9.162;2023-04-23T07:59:30;2.93;;;2.30;;
6947;SDS011;3513;47.664;9.162;2023-04-23T08:01:56;3.47;;;2.17;;
6947;SDS011;3513;47.664;9.162;2023-04-23T08:04:22;3.73;;;2.60;;
6947;SDS011;3513;47.664;9.162;2023-04-23T08:06:47;4.23;;;3.60;;
6947;SDS011;3513;47.664;9.162;2023-04-23T08:09:13;2.87;;;2.60;;
6947;SDS011;3513;47.664;9.162;2023-04-23T08:11:39;5.30;;;2.67;;
6947;SDS011;3513;47.664;9.162;2023-04-23T08:14:05;5.17;;;3.10;;
6947;SDS011;3513;47.664;9.162;2023-04-23T08:16:30;4.27;;;3.87;;
6947;SDS011;3513;47.664;9.162;2023-04-23T08:18:56;3.87;;;3.00;;
6947;SDS011;3513;47.664;9.162;2023-04-23T08:21:22;3.63;;;3.30;;
6947;SDS011;3513;47.664;9.162;2023-04-23T08:23:49;8.40;;;3.27;;
6947;SDS011;3513;47.664;9.162;2023-04-23T08:26:15;4.40;;;3.37;;
6947;SDS011;3513;47.664;9.162;2023-04-23T08:28:41;3.27;;;2.97;;
6947;SDS011;3513;47.664;9.162;2023-04-23T08:31:06;9.30;;;3.87;;
6947;SDS011;3513;47.664;9.162;2023-04-23T08:33:32;3.93;;;3.03;;
6947;SDS011;3513;47.664;9.162;2023-04-23T08:35:57;3.83;;;3.00;;
6947;SDS011;3513;47.664;9.162;2023-04-23T08:38:23;4.50;;;3.23;;
6947;SDS011;3513;47.664;9.162;2023-04-23T08:40:48;7.23;;;2.70;;
6947;SDS011;3513;47.664;9.162;2023-04-23T08:43:20;5.00;;;2.70;;
6947;SDS011;3513;47.664;9.162;2023-04-23T08:46:01;6.13;;;2.40;;
6947;SDS011;3513;47.664;9.162;2023-04-23T08:48:31;5.90;;;2.67;;
6947;SDS011;3513;47.664;9.162;2023-04-23T08:50:58;8.13;;;2.87;;
6947;SDS011;3513;47.664;9.162;2023-04-23T08:53:26;7.53;;;2.80;;
6947;SDS011;3513;47.664;9.162;2023-04-23T08:55:53;6.00;;;2.57;;
6947;SDS011;3513;47.664;9.162;2023-04-23T08:58:21;3.20;;;2.40;;
6947;SDS011;3513;47.664;9.162;2023-04-23T09:00:48;3.43;;;2.50;;
6947;SDS011;3513;47.664;9.162;2023-04-23T09:03:15;9.70;;;2.83;;
6947;SDS011;3513;47.664;9.162;2023-04-23T09:05:41;3.70;;;2.10;;
6947;SDS011;3513;47.664;9.162;2023-04-23T09:08:08;6.60;;;2.20;;
6947;SDS011;3513;47.664;9.162;2023-04-23T09:10:36;2.40;;;1.97;;
6947;SDS011;3513;47.664;9.162;2023-04-23T09:13:04;3.77;;;2.00;;
6947;SDS011;3513;47.664;9.162;2023-04-23T09:15:30;2.53;;;2.07;;
6947;SDS011;3513;47.664;9.162;2023-04-23T09:17:56;3.97;;;2.40;;
6947;SDS011;3513;47.664;9.162;2023-04-23T09:20:23;6.50;;;2.50;;
6947;SDS011;3513;47.664;9.162;2023-04-23T09:22:50;2.93;;;1.93;;
6947;SDS011;3513;47.664;9.162;2023-04-23T09:25:20;2.87;;;1.87;;
6947;SDS011;3513;47.664;9.162;2023-04-23T09:27:48;3.60;;;1.90;;
6947;SDS011;3513;47.664;9.162;2023-04-23T09:30:15;6.07;;;1.80;;
6947;SDS011;3513;47.664;9.162;2023-04-23T09:32:42;2.63;;;1.70;;
6947;SDS011;3513;47.664;9.162;2023-04-23T09:35:16;1.70;;;1.60;;
6947;SDS011;3513;47.664;9.162;2023-04-23T09:37:47;1.97;;;1.63;;
6947;SDS011;3513;47.664;9.162;2023-04-23T09:40:14;3.77;;;1.83;;
6947;SDS011;3513;47.664;9.162;2023-04-23T09:42:46;3.30;;;1.80;;
6947;SDS011;3513;47.664;9.162;2023-04-23T09:45:13;3.60;;;1.40;;
6947;SDS011;3513;47.664;9.162;2023-04-23T09:47:46;3.13;;;1.80;;
6947;SDS011;3513;47.664;9.162;2023-04-23T09:50:14;6.30;;;4.03;;
6947;SDS011;3513;47.664;9.162;2023-04-23T09:52:40;2.27;;;1.63;;
6947;SDS011;3513;47.664;9.162;2023-04-23T09:55:05;1.37;;;1.20;;
6947;SDS011;3513;47.664;9.162;2023-04-23T09:57:35;1.77;;;1.50;;
6947;SDS011;3513;47.664;9.162;2023-04-23T10:00:15;2.10;;;1.30;;
6947;SDS011;3513;47.664;9.162;2023-04-23T10:02:44;5.70;;;1.50;;
6947;SDS011;3513;47.664;9.162;2023-04-23T10:05:13;1.87;;;1.67;;
6947;SDS011;3513;47.664;9.162;2023-04-23T10:07:43;1.33;;;1.23;;
6947;SDS011;3513;47.664;9.162;2023-04-23T10:10:11;1.67;;;1.30;;
6947;SDS011;3513;47.664;9.162;2023-04-23T10:12:36;1.87;;;1.30;;
6947;SDS011;3513;47.664;9.162;2023-04-23T10:15:03;1.60;;;1.50;;
6947;SDS011;3513;47.664;9.162;2023-04-23T10:17:29;2.30;;;1.30;;
6947;SDS011;3513;47.664;9.162;2023-04-23T10:19:55;1.50;;;1.20;;
6947;SDS011;3513;47.664;9.162;2023-04-23T10:22:24;2.17;;;1.37;;
6947;SDS011;3513;47.664;9.162;2023-04-23T10:24:52;1.30;;;1.20;;
6947;SDS011;3513;47.664;9.162;2023-04-23T10:27:22;4.80;;;1.70;;
6947;SDS011;3513;47.664;9.162;2023-04-23T10:29:51;2.90;;;1.90;;
6947;SDS011;3513;47.664;9.162;2023-04-23T10:32:18;1.90;;;1.73;;
6947;SDS011;3513;47.664;9.162;2023-04-23T10:34:45;4.77;;;1.97;;
6947;SDS011;3513;47.664;9.162;2023-04-23T10:37:10;2.30;;;1.70;;
6947;SDS011;3513;47.664;9.162;2023-04-23T10:39:39;2.40;;;2.20;;
6947;SDS011;3513;47.664;9.162;2023-04-23T10:42:08;4.13;;;1.80;;
6947;SDS011;3513;47.664;9.162;2023-04-23T10:44:38;3.77;;;1.63;;
6947;SDS011;3513;47.664;9.162;2023-04-23T10:47:08;1.50;;;1.37;;
6947;SDS011;3513;47.664;9.162;2023-04-23T10:49:40;3.93;;;2.17;;
6947;SDS011;3513;47.664;9.162;2023-04-23T10:52:11;5.93;;;1.87;;
6947;SDS011;3513;47.664;9.162;2023-04-23T10:54:40;3.20;;;1.97;;
6947;SDS011;3513;47.664;9.162;2023-04-23T10:57:27;2.63;;;1.83;;
6947;SDS011;3513;47.664;9.162;2023-04-23T10:59:53;4.90;;;3.00;;
6947;SDS011;3513;47.664;9.162;2023-04-23T11:02:21;4.30;;;2.90;;
6947;SDS011;3513;47.664;9.162;2023-04-23T11:04:57;3.53;;;2.30;;
6947;SDS011;3513;47.664;9.162;2023-04-23T11:07:30;6.63;;;1.90;;
6947;SDS011;3513;47.664;9.162;2023-04-23T11:10:15;2.70;;;1.83;;
6947;SDS011;3513;47.664;9.162;2023-04-23T11:12:40;4.10;;;1.93;;
6947;SDS011;3513;47.664;9.162;2023-04-23T11:15:11;6.93;;;1.97;;
6947;SDS011;3513;47.664;9.162;2023-04-23T11:20:14;2.20;;;2.10;;
6947;SDS011;3513;47.664;9.162;2023-04-23T11:22:49;4.83;;;2.23;;
6947;SDS011;3513;47.664;9.162;2023-04-23T11:27:46;4.07;;;2.33;;
6947;SDS011;3513;47.664;9.162;2023-04-23T11:30:13;3.80;;;2.00;;
6947;SDS011;3513;47.664;9.162;2023-04-23T11:32:40;3.80;;;2.10;;
6947;SDS011;3513;47.664;9.162;2023-04-23T11:35:08;2.50;;;2.00;;
6947;SDS011;3513;47.664;9.162;2023-04-23T11:37:38;6.20;;;2.33;;
6947;SDS011;3513;47.664;9.162;2023-04-23T11:40:05;3.33;;;2.07;;
6947;SDS011;3513;47.664;9.162;2023-04-23T11:45:21;3.30;;;2.03;;
6947;SDS011;3513;47.664;9.162;2023-04-23T11:47:55;3.80;;;2.40;;
6947;SDS011;3513;47.664;9.162;2023-04-23T11:50:25;2.07;;;1.87;;
6947;SDS011;3513;47.664;9.162;2023-04-23T11:52:53;2.00;;;1.80;;
6947;SDS011;3513;47.664;9.162;2023-04-23T11:55:19;3.50;;;2.73;;
6947;SDS011;3513;47.664;9.162;2023-04-23T11:57:46;2.60;;;1.97;;
6947;SDS011;3513;47.664;9.162;2023-04-23T12:00:16;2.83;;;1.83;;
6947;SDS011;3513;47.664;9.162;2023-04-23T12:03:03;4.80;;;2.20;;
6947;SDS011;3513;47.664;9.162;2023-04-23T12:05:30;7.30;;;2.00;;
6947;SDS011;3513;47.664;9.162;2023-04-23T12:08:16;3.67;;;1.70;;
6947;SDS011;3513;47.664;9.162;2023-04-23T12:10:48;4.77;;;2.37;;
6947;SDS011;3513;47.664;9.162;2023-04-23T12:13:23;3.40;;;2.00;;
6947;SDS011;3513;47.664;9.162;2023-04-23T12:15:51;2.10;;;1.90;;
6947;SDS011;3513;47.664;9.162;2023-04-23T12:18:26;5.17;;;2.77;;
6947;SDS011;3513;47.664;9.162;2023-04-23T12:20:55;4.60;;;1.80;;
6947;SDS011;3513;47.664;9.162;2023-04-23T12:23:42;4.07;;;2.33;;
6947;SDS011;3513;47.664;9.162;2023-04-23T12:26:17;3.07;;;1.73;;
6947;SDS011;3513;47.664;9.162;2023-04-23T12:28:54;2.60;;;1.60;;
6947;SDS011;3513;47.664;9.162;2023-04-23T12:31:26;3.87;;;2.40;;
6947;SDS011;3513;47.664;9.162;2023-04-23T12:36:28;3.23;;;1.80;;
6947;SDS011;3513;47.664;9.162;2023-04-23T12:39:40;1.47;;;1.37;;
6947;SDS011;3513;47.664;9.162;2023-04-23T12:41:43;5.43;;;2.20;;
6947;SDS011;3513;47.664;9.162;2023-04-23T12:44:09;2.97;;;2.07;;
6947;SDS011;3513;47.664;9.162;2023-04-23T12:46:35;4.10;;;1.90;;
6947;SDS011;3513;47.664;9.162;2023-04-23T12:49:01;2.97;;;1.70;;
6947;SDS011;3513;47.664;9.162;2023-04-23T12:51:26;1.87;;;1.67;;
6947;SDS011;3513;47.664;9.162;2023-04-23T12:53:52;2.50;;;1.63;;
6947;SDS011;3513;47.664;9.162;2023-04-23T12:56:18;1.80;;;1.70;;
6947;SDS011;3513;47.664;9.162;2023-04-23T12:58:44;3.40;;;1.70;;
6947;SDS011;3513;47.664;9.162;2023-04-23T13:01:10;3.73;;;2.40;;
6947;SDS011;3513;47.664;9.162;2023-04-23T13:03:36;2.73;;;2.20;;
6947;SDS011;3513;47.664;9.162;2023-04-23T13:06:02;3.83;;;2.10;;
6947;SDS011;3513;47.664;9.162;2023-04-23T13:08:28;2.13;;;1.83;;
6947;SDS011;3513;47.664;9.162;2023-04-23T13:10:53;3.70;;;1.90;;
6947;SDS011;3513;47.664;9.162;2023-04-23T13:13:19;1.73;;;1.40;;
6947;SDS011;3513;47.664;9.162;2023-04-23T13:15:45;4.50;;;1.67;;
6947;SDS011;3513;47.664;9.162;2023-04-23T13:18:10;2.20;;;2.00;;
6947;SDS011;3513;47.664;9.162;2023-04-23T13:20:36;4.87;;;1.63;;
6947;SDS011;3513;47.664;9.162;2023-04-23T13:23:02;1.50;;;1.40;;
6947;SDS011;3513;47.664;9.162;2023-04-23T13:25:27;7.73;;;2.17;;
6947;SDS011;3513;47.664;9.162;2023-04-23T13:27:53;5.83;;;2.30;;
6947;SDS011;3513;47.664;9.162;2023-04-23T13:30:20;2.70;;;2.03;;
6947;SDS011;3513;47.664;9.162;2023-04-23T13:32:45;3.63;;;2.37;;
6947;SDS011;3513;47.664;9.162;2023-04-23T13:35:11;6.27;;;2.50;;
6947;SDS011;3513;47.664;9.162;2023-04-23T13:37:38;5.23;;;2.20;;
6947;SDS011;3513;47.664;9.162;2023-04-23T13:40:05;4.50;;;2.40;;
6947;SDS011;3513;47.664;9.162;2023-04-23T13:42:31;3.83;;;2.57;;
6947;SDS011;3513;47.664;9.162;2023-04-23T13:44:58;2.80;;;1.70;;
6947;SDS011;3513;47.664;9.162;2023-04-23T13:47:23;2.70;;;1.90;;
6947;SDS011;3513;47.664;9.162;2023-04-23T13:49:51;2.23;;;1.80;;
6947;SDS011;3513;47.664;9.162;2023-04-23T13:52:16;2.30;;;1.60;;
6947;SDS011;3513;47.664;9.162;2023-04-23T13:54:42;2.70;;;1.90;;
6947;SDS011;3513;47.664;9.162;2023-04-23T13:57:07;3.00;;;2.10;;
6947;SDS011;3513;47.664;9.162;2023-04-23T13:59:34;1.83;;;1.73;;
6947;SDS011;3513;47.664;9.162;2023-04-23T14:02:00;2.23;;;1.37;;
6947;SDS011;3513;47.664;9.162;2023-04-23T14:04:25;2.70;;;1.63;;
6947;SDS011;3513;47.664;9.162;2023-04-23T14:06:51;6.07;;;2.10;;
6947;SDS011;3513;47.664;9.162;2023-04-23T14:09:16;3.27;;;1.77;;
6947;SDS011;3513;47.664;9.162;2023-04-23T14:11:43;2.70;;;1.93;;
6947;SDS011;3513;47.664;9.162;2023-04-23T14:14:08;4.13;;;2.10;;
6947;SDS011;3513;47.664;9.162;2023-04-23T14:16:34;2.07;;;1.87;;
6947;SDS011;3513;47.664;9.162;2023-04-23T14:19:00;2.13;;;1.80;;
6947;SDS011;3513;47.664;9.162;2023-04-23T14:21:25;2.80;;;2.00;;
6947;SDS011;3513;47.664;9.162;2023-04-23T14:23:55;2.80;;;1.80;;
6947;SDS011;3513;47.664;9.162;2023-04-23T14:26:25;3.63;;;2.27;;
6947;SDS011;3513;47.664;9.162;2023-04-23T14:28:52;2.27;;;2.00;;
6947;SDS011;3513;47.664;9.162;2023-04-23T14:31:22;3.20;;;1.90;;
6947;SDS011;3513;47.664;9.162;2023-04-23T14:33:47;3.10;;;2.30;;
6947;SDS011;3513;47.664;9.162;2023-04-23T14:36:13;6.57;;;2.37;;
6947;SDS011;3513;47.664;9.162;2023-04-23T14:38:38;3.17;;;2.10;;
6947;SDS011;3513;47.664;9.162;2023-04-23T14:41:04;3.00;;;2.53;;
6947;SDS011;3513;47.664;9.162;2023-04-23T14:43:30;4.93;;;2.90;;
6947;SDS011;3513;47.664;9.162;2023-04-23T14:45:55;7.17;;;2.37;;
6947;SDS011;3513;47.664;9.162;2023-04-23T14:48:21;3.80;;;2.57;;
6947;SDS011;3513;47.664;9.162;2023-04-23T14:50:46;4.40;;;2.57;;
6947;SDS011;3513;47.664;9.162;2023-04-23T14:53:12;4.40;;;2.50;;
6947;SDS011;3513;47.664;9.162;2023-04-23T14:55:38;8.83;;;2.73;;
6947;SDS011;3513;47.664;9.162;2023-04-23T14:58:06;3.37;;;1.90;;
6947;SDS011;3513;47.664;9.162;2023-04-23T15:00:32;3.10;;;2.90;;
6947;SDS011;3513;47.664;9.162;2023-04-23T15:02:57;11.60;;;6.20;;
6947;SDS011;3513;47.664;9.162;2023-04-23T15:05:23;12.07;;;5.20;;
6947;SDS011;3513;47.664;9.162;2023-04-23T15:07:49;5.90;;;4.23;;
6947;SDS011;3513;47.664;9.162;2023-04-23T15:10:17;4.93;;;4.00;;
6947;SDS011;3513;47.664;9.162;2023-04-23T15:15:22;5.73;;;2.90;;
6947;SDS011;3513;47.664;9.162;2023-04-23T15:18:02;6.20;;;3.40;;
6947;SDS011;3513;47.664;9.162;2023-04-23T15:20:27;4.77;;;3.07;;
6947;SDS011;3513;47.664;9.162;2023-04-23T15:22:53;4.23;;;2.47;;
6947;SDS011;3513;47.664;9.162;2023-04-23T15:25:19;3.90;;;2.80;;
6947;SDS011;3513;47.664;9.162;2023-04-23T15:27:44;3.17;;;2.87;;